X  Blizu METAR Podaci o vazduhoplovstvu     EHKD De Kooy Airport
Temperatura
46°F Temperatura
32°F Tačka Rose
57% Vlaga



Vetar
10 MPS
16 KM/S
4 M/S
9 Čvorovi



240°
ZJZ
Trenutna situacija

Delimično oblačno Delimično oblačno
Vazdušni pritisak 1019.98 (hPa) - 30.12 (inHg)
Vidljivost 6 (Milje) - 9.7 (km)
Aerodrom
Aerodromski kod. EHKD

Lokacija: De Kooy Airport
Udaljenost: 34 (mi)

Metar:
EHKD 231055Z AUTO 24009KT 210V280 9999 SCT043 OVC047 08/00 Q1020 BLU NOSIG

Vreme: 23-04-2024 12:55 CEST